sensor_id;sensor_type;location;lat;lon;timestamp;pressure;altitude;pressure_sealevel;temperature;humidity
19553;BME280;9420;50.876;7.012;2022-10-04T00:00:08;101908.41;;;23.33;71.92
19553;BME280;9420;50.876;7.012;2022-10-04T00:02:36;101905.59;;;23.06;71.71
19553;BME280;9420;50.876;7.012;2022-10-04T00:05:07;101909.16;;;23.21;73.42
19553;BME280;9420;50.876;7.012;2022-10-04T00:07:45;101906.50;;;23.61;71.75
19553;BME280;9420;50.876;7.012;2022-10-04T00:10:18;101917.00;;;23.38;73.31
19553;BME280;9420;50.876;7.012;2022-10-04T00:12:51;101921.06;;;23.72;72.61
19553;BME280;9420;50.876;7.012;2022-10-04T00:15:22;101935.50;;;23.71;72.21
19553;BME280;9420;50.876;7.012;2022-10-04T00:18:27;101930.13;;;23.71;72.61
19553;BME280;9420;50.876;7.012;2022-10-04T00:21:04;101936.25;;;23.73;72.18
19553;BME280;9420;50.876;7.012;2022-10-04T00:23:44;101923.56;;;23.75;71.79
19553;BME280;9420;50.876;7.012;2022-10-04T00:29:37;101926.66;;;23.68;71.21
19553;BME280;9420;50.876;7.012;2022-10-04T00:32:27;101917.44;;;23.73;71.11
19553;BME280;9420;50.876;7.012;2022-10-04T00:34:58;101911.06;;;23.47;71.86
19553;BME280;9420;50.876;7.012;2022-10-04T00:37:26;101910.72;;;23.65;71.76
19553;BME280;9420;50.876;7.012;2022-10-04T00:40:02;101917.09;;;23.50;72.94
19553;BME280;9420;50.876;7.012;2022-10-04T00:42:45;101908.31;;;23.61;72.00
19553;BME280;9420;50.876;7.012;2022-10-04T00:45:26;101896.38;;;23.38;73.41
19553;BME280;9420;50.876;7.012;2022-10-04T00:50:56;101887.09;;;23.97;69.45
19553;BME280;9420;50.876;7.012;2022-10-04T00:53:47;101889.13;;;23.94;70.56
19553;BME280;9420;50.876;7.012;2022-10-04T00:56:26;101885.53;;;23.81;69.64
19553;BME280;9420;50.876;7.012;2022-10-04T00:59:29;101880.91;;;23.83;71.25
19553;BME280;9420;50.876;7.012;2022-10-04T01:02:05;101877.25;;;23.84;70.75
19553;BME280;9420;50.876;7.012;2022-10-04T01:04:42;101877.84;;;23.75;70.82
19553;BME280;9420;50.876;7.012;2022-10-04T01:07:16;101879.03;;;23.56;71.22
19553;BME280;9420;50.876;7.012;2022-10-04T01:09:52;101870.28;;;23.67;70.84
19553;BME280;9420;50.876;7.012;2022-10-04T01:12:35;101876.13;;;23.74;70.13
19553;BME280;9420;50.876;7.012;2022-10-04T01:15:09;101876.41;;;23.42;71.07
19553;BME280;9420;50.876;7.012;2022-10-04T01:17:40;101876.59;;;23.25;71.84
19553;BME280;9420;50.876;7.012;2022-10-04T01:20:31;101873.50;;;23.31;72.23
19553;BME280;9420;50.876;7.012;2022-10-04T01:23:02;101879.28;;;23.25;72.56
19553;BME280;9420;50.876;7.012;2022-10-04T01:25:47;101884.13;;;23.06;72.79
19553;BME280;9420;50.876;7.012;2022-10-04T01:28:15;101890.81;;;22.99;73.50
19553;BME280;9420;50.876;7.012;2022-10-04T01:30:43;101880.66;;;23.32;72.65
19553;BME280;9420;50.876;7.012;2022-10-04T01:33:12;101882.94;;;23.24;72.29
19553;BME280;9420;50.876;7.012;2022-10-04T01:35:39;101874.38;;;23.32;71.87
19553;BME280;9420;50.876;7.012;2022-10-04T01:38:08;101872.06;;;23.40;71.88
19553;BME280;9420;50.876;7.012;2022-10-04T01:40:42;101868.53;;;23.11;72.30
19553;BME280;9420;50.876;7.012;2022-10-04T01:43:20;101865.06;;;23.23;72.50
19553;BME280;9420;50.876;7.012;2022-10-04T01:45:54;101859.50;;;23.26;72.42
19553;BME280;9420;50.876;7.012;2022-10-04T01:48:31;101866.59;;;23.27;72.13
19553;BME280;9420;50.876;7.012;2022-10-04T01:51:07;101859.72;;;23.09;72.96
19553;BME280;9420;50.876;7.012;2022-10-04T01:53:46;101861.47;;;23.10;73.01
19553;BME280;9420;50.876;7.012;2022-10-04T01:56:19;101856.84;;;23.12;72.82
19553;BME280;9420;50.876;7.012;2022-10-04T01:58:51;101860.09;;;22.75;74.15
19553;BME280;9420;50.876;7.012;2022-10-04T02:01:24;101855.88;;;22.71;75.21
19553;BME280;9420;50.876;7.012;2022-10-04T02:04:01;101862.50;;;22.65;75.19
19553;BME280;9420;50.876;7.012;2022-10-04T02:06:37;101864.81;;;22.85;74.53
19553;BME280;9420;50.876;7.012;2022-10-04T02:09:12;101861.34;;;22.83;74.77
19553;BME280;9420;50.876;7.012;2022-10-04T02:11:42;101858.00;;;22.94;74.83
19553;BME280;9420;50.876;7.012;2022-10-04T02:14:14;101867.03;;;22.93;74.67
19553;BME280;9420;50.876;7.012;2022-10-04T02:16:46;101865.28;;;22.64;75.53
19553;BME280;9420;50.876;7.012;2022-10-04T02:19:20;101860.59;;;22.67;75.16
19553;BME280;9420;50.876;7.012;2022-10-04T02:21:51;101862.63;;;22.64;75.01
19553;BME280;9420;50.876;7.012;2022-10-04T02:24:20;101858.00;;;22.66;74.46
19553;BME280;9420;50.876;7.012;2022-10-04T02:26:50;101858.63;;;22.55;74.31
19553;BME280;9420;50.876;7.012;2022-10-04T02:29:19;101852.19;;;22.44;74.82
19553;BME280;9420;50.876;7.012;2022-10-04T02:31:49;101847.50;;;22.47;73.73
19553;BME280;9420;50.876;7.012;2022-10-04T02:34:35;101840.03;;;22.52;73.42
19553;BME280;9420;50.876;7.012;2022-10-04T02:37:05;101847.66;;;22.74;73.04
19553;BME280;9420;50.876;7.012;2022-10-04T02:39:39;101838.63;;;22.61;73.05
19553;BME280;9420;50.876;7.012;2022-10-04T02:42:13;101830.97;;;22.83;71.85
19553;BME280;9420;50.876;7.012;2022-10-04T02:44:47;101833.41;;;22.44;73.31
19553;BME280;9420;50.876;7.012;2022-10-04T02:47:20;101831.97;;;22.52;73.79
19553;BME280;9420;50.876;7.012;2022-10-04T02:49:51;101820.94;;;22.57;72.55
19553;BME280;9420;50.876;7.012;2022-10-04T02:52:26;101833.25;;;22.61;71.97
19553;BME280;9420;50.876;7.012;2022-10-04T02:55:03;101839.28;;;22.64;71.79
19553;BME280;9420;50.876;7.012;2022-10-04T02:57:33;101827.09;;;22.45;72.14
19553;BME280;9420;50.876;7.012;2022-10-04T03:00:16;101817.25;;;22.59;72.20
19553;BME280;9420;50.876;7.012;2022-10-04T03:03:15;101805.78;;;22.42;72.31
19553;BME280;9420;50.876;7.012;2022-10-04T03:05:52;101813.59;;;22.17;73.38
19553;BME280;9420;50.876;7.012;2022-10-04T03:08:22;101809.06;;;22.33;73.71
19553;BME280;9420;50.876;7.012;2022-10-04T03:10:51;101810.59;;;22.51;73.58
19553;BME280;9420;50.876;7.012;2022-10-04T03:13:20;101810.34;;;22.69;72.67
19553;BME280;9420;50.876;7.012;2022-10-04T03:15:48;101813.22;;;22.66;72.36
19553;BME280;9420;50.876;7.012;2022-10-04T03:18:17;101801.88;;;22.89;71.79
19553;BME280;9420;50.876;7.012;2022-10-04T03:20:46;101798.56;;;22.72;71.77
19553;BME280;9420;50.876;7.012;2022-10-04T03:23:16;101808.16;;;22.62;71.97
19553;BME280;9420;50.876;7.012;2022-10-04T03:25:52;101792.56;;;22.53;71.76
19553;BME280;9420;50.876;7.012;2022-10-04T03:28:24;101794.50;;;22.51;71.92
19553;BME280;9420;50.876;7.012;2022-10-04T03:30:51;101792.75;;;22.50;72.19
19553;BME280;9420;50.876;7.012;2022-10-04T03:33:22;101783.84;;;24.25;65.31
19553;BME280;9420;50.876;7.012;2022-10-04T03:35:53;101784.25;;;22.43;69.99
19553;BME280;9420;50.876;7.012;2022-10-04T03:38:22;101777.34;;;22.53;70.57
19553;BME280;9420;50.876;7.012;2022-10-04T03:40:55;101776.00;;;22.46;70.30
19553;BME280;9420;50.876;7.012;2022-10-04T03:43:29;101775.53;;;22.68;70.09
19553;BME280;9420;50.876;7.012;2022-10-04T03:45:58;101769.97;;;22.43;70.92
19553;BME280;9420;50.876;7.012;2022-10-04T03:48:34;101766.41;;;23.25;68.69
19553;BME280;9420;50.876;7.012;2022-10-04T03:51:05;101776.00;;;23.43;66.69
19553;BME280;9420;50.876;7.012;2022-10-04T03:53:36;101770.38;;;24.12;63.92
19553;BME280;9420;50.876;7.012;2022-10-04T03:56:12;101777.28;;;24.29;63.11
19553;BME280;9420;50.876;7.012;2022-10-04T03:58:42;101773.38;;;24.58;62.30
19553;BME280;9420;50.876;7.012;2022-10-04T04:01:23;101784.06;;;23.83;63.85
19553;BME280;9420;50.876;7.012;2022-10-04T04:04:05;101782.47;;;23.53;64.76
19553;BME280;9420;50.876;7.012;2022-10-04T04:06:46;101783.16;;;23.69;64.29
19553;BME280;9420;50.876;7.012;2022-10-04T04:09:23;101775.66;;;23.75;63.57
19553;BME280;9420;50.876;7.012;2022-10-04T04:11:56;101778.47;;;23.46;63.92
19553;BME280;9420;50.876;7.012;2022-10-04T04:14:26;101777.22;;;23.52;63.72
19553;BME280;9420;50.876;7.012;2022-10-04T04:20:12;101762.66;;;23.01;64.28
19553;BME280;9420;50.876;7.012;2022-10-04T04:22:43;101760.53;;;23.06;64.94
19553;BME280;9420;50.876;7.012;2022-10-04T04:25:15;101757.16;;;23.29;65.03
19553;BME280;9420;50.876;7.012;2022-10-04T04:27:46;101756.72;;;23.37;65.13
19553;BME280;9420;50.876;7.012;2022-10-04T04:30:16;101750.81;;;23.44;64.97
19553;BME280;9420;50.876;7.012;2022-10-04T04:32:49;101757.09;;;23.57;64.54
19553;BME280;9420;50.876;7.012;2022-10-04T04:35:29;101766.53;;;23.50;64.50
19553;BME280;9420;50.876;7.012;2022-10-04T04:38:22;101766.47;;;23.52;63.97
19553;BME280;9420;50.876;7.012;2022-10-04T04:40:50;101765.19;;;24.22;61.84
19553;BME280;9420;50.876;7.012;2022-10-04T04:43:26;101764.34;;;24.21;61.14
19553;BME280;9420;50.876;7.012;2022-10-04T04:45:54;101770.97;;;24.03;61.88
19553;BME280;9420;50.876;7.012;2022-10-04T04:48:23;101768.56;;;23.20;63.57
19553;BME280;9420;50.876;7.012;2022-10-04T04:50:54;101770.97;;;23.51;63.21
19553;BME280;9420;50.876;7.012;2022-10-04T04:53:26;101768.19;;;22.98;63.64
19553;BME280;9420;50.876;7.012;2022-10-04T04:55:57;101768.72;;;21.90;68.50
19553;BME280;9420;50.876;7.012;2022-10-04T04:58:30;101767.72;;;23.86;63.73
19553;BME280;9420;50.876;7.012;2022-10-04T05:01:03;101772.97;;;24.14;61.12
19553;BME280;9420;50.876;7.012;2022-10-04T05:03:32;101769.13;;;23.91;61.25
19553;BME280;9420;50.876;7.012;2022-10-04T05:06:00;101771.59;;;23.94;61.08
19553;BME280;9420;50.876;7.012;2022-10-04T05:08:32;101763.00;;;23.89;61.36
19553;BME280;9420;50.876;7.012;2022-10-04T05:11:04;101755.75;;;22.97;63.66
19553;BME280;9420;50.876;7.012;2022-10-04T05:13:43;101758.94;;;24.09;60.49
19553;BME280;9420;50.876;7.012;2022-10-04T05:16:19;101752.03;;;21.85;69.10
19553;BME280;9420;50.876;7.012;2022-10-04T05:18:53;101748.53;;;21.99;70.17
19553;BME280;9420;50.876;7.012;2022-10-04T05:21:26;101753.78;;;21.86;70.69
19553;BME280;9420;50.876;7.012;2022-10-04T05:23:55;101753.09;;;22.41;69.62
19553;BME280;9420;50.876;7.012;2022-10-04T05:26:28;101759.00;;;22.18;69.29
19553;BME280;9420;50.876;7.012;2022-10-04T05:29:06;101741.22;;;21.87;71.75
19553;BME280;9420;50.876;7.012;2022-10-04T05:31:44;101730.91;;;21.95;71.03
19553;BME280;9420;50.876;7.012;2022-10-04T05:34:22;101737.72;;;22.14;71.10
19553;BME280;9420;50.876;7.012;2022-10-04T05:40:02;101742.72;;;22.21;71.84
19553;BME280;9420;50.876;7.012;2022-10-04T05:42:36;101744.72;;;22.03;72.47
19553;BME280;9420;50.876;7.012;2022-10-04T05:45:18;101739.59;;;21.84;72.80
19553;BME280;9420;50.876;7.012;2022-10-04T05:47:49;101735.22;;;21.97;73.24
19553;BME280;9420;50.876;7.012;2022-10-04T05:50:22;101744.16;;;22.26;71.96
19553;BME280;9420;50.876;7.012;2022-10-04T05:53:18;101735.78;;;21.88;72.18
19553;BME280;9420;50.876;7.012;2022-10-04T05:55:54;101731.59;;;22.27;71.96
19553;BME280;9420;50.876;7.012;2022-10-04T05:58:44;101731.59;;;22.27;71.20
19553;BME280;9420;50.876;7.012;2022-10-04T06:01:38;101733.81;;;22.20;71.50
19553;BME280;9420;50.876;7.012;2022-10-04T06:04:26;101737.94;;;22.11;71.15
19553;BME280;9420;50.876;7.012;2022-10-04T06:07:04;101737.03;;;21.97;71.93
19553;BME280;9420;50.876;7.012;2022-10-04T06:09:57;101724.78;;;21.93;72.57
19553;BME280;9420;50.876;7.012;2022-10-04T06:12:45;101725.28;;;22.42;71.11
19553;BME280;9420;50.876;7.012;2022-10-04T06:15:44;101725.88;;;22.33;70.36
19553;BME280;9420;50.876;7.012;2022-10-04T06:18:50;101730.66;;;22.42;70.40
19553;BME280;9420;50.876;7.012;2022-10-04T06:21:26;101731.41;;;22.30;70.54
19553;BME280;9420;50.876;7.012;2022-10-04T06:24:01;101733.69;;;22.50;70.69
19553;BME280;9420;50.876;7.012;2022-10-04T06:26:38;101731.44;;;22.58;70.03
19553;BME280;9420;50.876;7.012;2022-10-04T06:29:12;101746.84;;;22.54;70.35
19553;BME280;9420;50.876;7.012;2022-10-04T06:32:45;101738.13;;;22.51;70.39
19553;BME280;9420;50.876;7.012;2022-10-04T06:36:06;101742.53;;;22.80;69.42
19553;BME280;9420;50.876;7.012;2022-10-04T06:39:07;101724.81;;;22.63;70.00
19553;BME280;9420;50.876;7.012;2022-10-04T06:41:56;101731.06;;;22.64;70.26
19553;BME280;9420;50.876;7.012;2022-10-04T06:44:49;101733.91;;;22.47;70.48
19553;BME280;9420;50.876;7.012;2022-10-04T06:47:36;101720.00;;;22.54;70.97
19553;BME280;9420;50.876;7.012;2022-10-04T06:50:22;101725.00;;;22.60;71.02
19553;BME280;9420;50.876;7.012;2022-10-04T06:53:19;101721.06;;;22.80;70.49
19553;BME280;9420;50.876;7.012;2022-10-04T06:56:15;101729.69;;;22.85;70.90
19553;BME280;9420;50.876;7.012;2022-10-04T06:59:24;101733.81;;;22.34;72.34
19553;BME280;9420;50.876;7.012;2022-10-04T07:02:04;101732.69;;;23.07;70.93
19553;BME280;9420;50.876;7.012;2022-10-04T07:04:37;101729.72;;;23.12;70.95
19553;BME280;9420;50.876;7.012;2022-10-04T07:07:19;101729.28;;;22.91;71.64
19553;BME280;9420;50.876;7.012;2022-10-04T07:09:59;101731.00;;;22.92;70.92
19553;BME280;9420;50.876;7.012;2022-10-04T07:12:31;101724.41;;;22.83;71.76
19553;BME280;9420;50.876;7.012;2022-10-04T07:15:04;101724.16;;;23.01;71.53
19553;BME280;9420;50.876;7.012;2022-10-04T07:17:41;101728.91;;;23.50;70.72
19553;BME280;9420;50.876;7.012;2022-10-04T07:20:21;101734.84;;;23.29;71.08
19553;BME280;9420;50.876;7.012;2022-10-04T07:22:55;101733.00;;;23.43;70.97
19553;BME280;9420;50.876;7.012;2022-10-04T07:25:30;101735.59;;;23.57;70.17
19553;BME280;9420;50.876;7.012;2022-10-04T07:28:10;101728.16;;;24.00;68.89
19553;BME280;9420;50.876;7.012;2022-10-04T07:31:02;101736.00;;;23.51;70.30
19553;BME280;9420;50.876;7.012;2022-10-04T07:33:34;101734.59;;;23.85;70.29
19553;BME280;9420;50.876;7.012;2022-10-04T07:36:11;101734.03;;;23.93;69.54
19553;BME280;9420;50.876;7.012;2022-10-04T07:38:55;101730.66;;;24.16;69.35
19553;BME280;9420;50.876;7.012;2022-10-04T07:41:31;101730.94;;;24.49;67.47
19553;BME280;9420;50.876;7.012;2022-10-04T07:44:06;101741.09;;;24.08;69.39
19553;BME280;9420;50.876;7.012;2022-10-04T07:46:49;101742.47;;;25.12;66.39
19553;BME280;9420;50.876;7.012;2022-10-04T07:49:21;101739.34;;;24.57;66.83
19553;BME280;9420;50.876;7.012;2022-10-04T07:52:04;101747.63;;;24.79;65.10
19553;BME280;9420;50.876;7.012;2022-10-04T07:54:45;101742.09;;;24.93;67.13
19553;BME280;9420;50.876;7.012;2022-10-04T07:57:21;101748.56;;;24.03;67.05
19553;BME280;9420;50.876;7.012;2022-10-04T08:00:00;101751.19;;;24.67;66.78
19553;BME280;9420;50.876;7.012;2022-10-04T08:03:09;101740.59;;;24.89;67.19
19553;BME280;9420;50.876;7.012;2022-10-04T08:05:44;101742.16;;;24.43;68.98
19553;BME280;9420;50.876;7.012;2022-10-04T08:08:33;101748.28;;;24.45;68.13
19553;BME280;9420;50.876;7.012;2022-10-04T08:11:16;101756.09;;;24.98;66.81
19553;BME280;9420;50.876;7.012;2022-10-04T08:13:56;101742.47;;;25.12;66.74
19553;BME280;9420;50.876;7.012;2022-10-04T08:16:35;101743.31;;;24.77;67.41
19553;BME280;9420;50.876;7.012;2022-10-04T08:19:31;101751.63;;;24.86;68.43
19553;BME280;9420;50.876;7.012;2022-10-04T08:22:17;101749.34;;;25.16;67.61
19553;BME280;9420;50.876;7.012;2022-10-04T08:25:00;101748.72;;;25.13;68.32
19553;BME280;9420;50.876;7.012;2022-10-04T08:27:52;101746.38;;;25.08;66.96
19553;BME280;9420;50.876;7.012;2022-10-04T08:30:58;101742.00;;;25.18;66.84
19553;BME280;9420;50.876;7.012;2022-10-04T08:33:56;101744.00;;;25.04;66.80
19553;BME280;9420;50.876;7.012;2022-10-04T08:36:41;101744.53;;;25.33;66.19
19553;BME280;9420;50.876;7.012;2022-10-04T08:39:33;101751.28;;;24.78;67.26
19553;BME280;9420;50.876;7.012;2022-10-04T08:49:04;101735.03;;;25.74;64.34
19553;BME280;9420;50.876;7.012;2022-10-04T08:52:20;101727.28;;;25.59;64.18
19553;BME280;9420;50.876;7.012;2022-10-04T08:55:33;101726.69;;;25.66;64.50
19553;BME280;9420;50.876;7.012;2022-10-04T08:58:31;101723.78;;;26.15;63.92
19553;BME280;9420;50.876;7.012;2022-10-04T09:01:41;101721.94;;;25.70;65.08
19553;BME280;9420;50.876;7.012;2022-10-04T09:04:56;101716.19;;;26.42;63.38
19553;BME280;9420;50.876;7.012;2022-10-04T09:08:08;101721.38;;;25.88;64.20
19553;BME280;9420;50.876;7.012;2022-10-04T09:11:10;101720.22;;;26.15;63.35
19553;BME280;9420;50.876;7.012;2022-10-04T09:14:03;101715.69;;;26.26;62.96
19553;BME280;9420;50.876;7.012;2022-10-04T09:16:44;101712.28;;;25.89;64.06
19553;BME280;9420;50.876;7.012;2022-10-04T09:19:32;101718.53;;;25.90;64.52
19553;BME280;9420;50.876;7.012;2022-10-04T09:22:17;101719.81;;;25.97;63.73
19553;BME280;9420;50.876;7.012;2022-10-04T09:25:25;101721.81;;;26.84;62.59
19553;BME280;9420;50.876;7.012;2022-10-04T09:28:37;101710.88;;;26.96;62.19
19553;BME280;9420;50.876;7.012;2022-10-04T09:34:36;101719.13;;;26.50;63.32
19553;BME280;9420;50.876;7.012;2022-10-04T09:37:31;101703.16;;;26.69;62.56
19553;BME280;9420;50.876;7.012;2022-10-04T09:40:46;101699.97;;;26.75;63.58
19553;BME280;9420;50.876;7.012;2022-10-04T09:43:57;101698.72;;;27.02;60.59
19553;BME280;9420;50.876;7.012;2022-10-04T09:46:57;101696.94;;;27.23;60.55
19553;BME280;9420;50.876;7.012;2022-10-04T09:50:03;101703.16;;;27.34;61.61
19553;BME280;9420;50.876;7.012;2022-10-04T09:52:48;101698.63;;;27.35;62.87
19553;BME280;9420;50.876;7.012;2022-10-04T09:55:38;101689.22;;;27.50;61.65
19553;BME280;9420;50.876;7.012;2022-10-04T09:58:39;101691.44;;;27.45;63.02
19553;BME280;9420;50.876;7.012;2022-10-04T10:01:25;101676.81;;;28.09;60.45
19553;BME280;9420;50.876;7.012;2022-10-04T10:07:23;101675.81;;;28.10;59.44
19553;BME280;9420;50.876;7.012;2022-10-04T10:10:12;101682.94;;;27.91;59.14
19553;BME280;9420;50.876;7.012;2022-10-04T10:13:20;101679.84;;;28.46;59.44
19553;BME280;9420;50.876;7.012;2022-10-04T10:16:26;101682.22;;;28.40;60.11
19553;BME280;9420;50.876;7.012;2022-10-04T10:19:21;101677.34;;;28.03;57.75
19553;BME280;9420;50.876;7.012;2022-10-04T10:22:15;101671.16;;;29.11;56.96
19553;BME280;9420;50.876;7.012;2022-10-04T10:25:16;101662.34;;;29.19;56.42
19553;BME280;9420;50.876;7.012;2022-10-04T10:28:20;101672.88;;;29.89;56.90
19553;BME280;9420;50.876;7.012;2022-10-04T10:31:14;101656.53;;;30.08;56.08
19553;BME280;9420;50.876;7.012;2022-10-04T10:34:28;101662.69;;;30.10;56.44
19553;BME280;9420;50.876;7.012;2022-10-04T10:37:12;101658.22;;;30.09;54.42
19553;BME280;9420;50.876;7.012;2022-10-04T10:40:15;101653.66;;;30.46;54.59
19553;BME280;9420;50.876;7.012;2022-10-04T10:43:22;101654.91;;;30.15;53.70
19553;BME280;9420;50.876;7.012;2022-10-04T10:46:25;101653.03;;;30.34;52.90
19553;BME280;9420;50.876;7.012;2022-10-04T10:49:36;101652.56;;;30.66;52.56
19553;BME280;9420;50.876;7.012;2022-10-04T11:00:03;101651.69;;;31.28;46.67
19553;BME280;9420;50.876;7.012;2022-10-04T11:03:15;101645.56;;;32.13;45.71
19553;BME280;9420;50.876;7.012;2022-10-04T11:06:12;101638.38;;;32.45;44.42
19553;BME280;9420;50.876;7.012;2022-10-04T11:09:33;101631.81;;;33.62;41.38
19553;BME280;9420;50.876;7.012;2022-10-04T11:12:54;101627.84;;;35.73;39.40
19553;BME280;9420;50.876;7.012;2022-10-04T11:22:49;101598.81;;;39.14;32.88
19553;BME280;9420;50.876;7.012;2022-10-04T11:28:33;101593.56;;;38.58;32.04
19553;BME280;9420;50.876;7.012;2022-10-04T11:35:16;101583.28;;;40.62;29.35
19553;BME280;9420;50.876;7.012;2022-10-04T11:38:07;101583.66;;;40.14;28.18
19553;BME280;9420;50.876;7.012;2022-10-04T11:40:58;101574.81;;;40.57;28.02
19553;BME280;9420;50.876;7.012;2022-10-04T11:44:24;101570.81;;;41.15;28.80
19553;BME280;9420;50.876;7.012;2022-10-04T11:47:03;101564.47;;;41.08;28.20
19553;BME280;9420;50.876;7.012;2022-10-04T11:49:58;101568.03;;;41.15;28.00
19553;BME280;9420;50.876;7.012;2022-10-04T11:53:12;101564.41;;;41.88;27.04
19553;BME280;9420;50.876;7.012;2022-10-04T11:56:15;101571.06;;;40.45;27.93
19553;BME280;9420;50.876;7.012;2022-10-04T11:59:04;101560.13;;;40.94;28.03
19553;BME280;9420;50.876;7.012;2022-10-04T12:02:23;101565.81;;;40.68;28.17
19553;BME280;9420;50.876;7.012;2022-10-04T12:08:19;101553.63;;;41.62;26.91
19553;BME280;9420;50.876;7.012;2022-10-04T12:14:41;101538.16;;;42.75;25.77
19553;BME280;9420;50.876;7.012;2022-10-04T12:20:40;101528.16;;;42.15;25.36
19553;BME280;9420;50.876;7.012;2022-10-04T12:23:59;101534.91;;;43.19;25.43
19553;BME280;9420;50.876;7.012;2022-10-04T12:27:19;101525.75;;;43.77;24.43
19553;BME280;9420;50.876;7.012;2022-10-04T12:30:22;101536.28;;;42.10;24.93
19553;BME280;9420;50.876;7.012;2022-10-04T12:33:08;101545.19;;;41.93;26.41
19553;BME280;9420;50.876;7.012;2022-10-04T12:35:55;101541.97;;;43.04;24.96
19553;BME280;9420;50.876;7.012;2022-10-04T12:38:51;101527.06;;;43.28;24.17
19553;BME280;9420;50.876;7.012;2022-10-04T12:41:39;101516.31;;;43.20;24.61
19553;BME280;9420;50.876;7.012;2022-10-04T12:44:27;101512.88;;;44.22;24.39
19553;BME280;9420;50.876;7.012;2022-10-04T12:47:36;101507.84;;;43.96;24.05
19553;BME280;9420;50.876;7.012;2022-10-04T12:50:17;101496.94;;;43.55;24.27
19553;BME280;9420;50.876;7.012;2022-10-04T12:53:09;101484.56;;;44.81;23.69
19553;BME280;9420;50.876;7.012;2022-10-04T12:56:03;101481.00;;;45.03;24.00
19553;BME280;9420;50.876;7.012;2022-10-04T12:58:49;101482.00;;;45.30;24.00
19553;BME280;9420;50.876;7.012;2022-10-04T13:01:31;101472.00;;;44.34;23.14
19553;BME280;9420;50.876;7.012;2022-10-04T13:04:18;101476.38;;;44.91;23.23
19553;BME280;9420;50.876;7.012;2022-10-04T13:10:20;101471.41;;;44.93;23.42
19553;BME280;9420;50.876;7.012;2022-10-04T13:13:34;101466.22;;;44.80;22.42
19553;BME280;9420;50.876;7.012;2022-10-04T13:16:16;101448.50;;;44.86;23.05
19553;BME280;9420;50.876;7.012;2022-10-04T13:18:56;101451.34;;;44.91;22.84
19553;BME280;9420;50.876;7.012;2022-10-04T13:22:03;101446.56;;;45.42;21.81
19553;BME280;9420;50.876;7.012;2022-10-04T13:24:41;101455.25;;;44.90;23.52
19553;BME280;9420;50.876;7.012;2022-10-04T13:27:38;101453.28;;;45.08;23.28
19553;BME280;9420;50.876;7.012;2022-10-04T13:30:19;101450.63;;;44.06;24.00
19553;BME280;9420;50.876;7.012;2022-10-04T13:33:02;101452.13;;;44.26;23.69
19553;BME280;9420;50.876;7.012;2022-10-04T13:35:38;101447.47;;;45.26;23.47
19553;BME280;9420;50.876;7.012;2022-10-04T13:38:43;101444.38;;;45.44;23.38
19553;BME280;9420;50.876;7.012;2022-10-04T13:41:32;101439.94;;;46.08;23.37
19553;BME280;9420;50.876;7.012;2022-10-04T13:44:32;101434.06;;;46.04;22.66
19553;BME280;9420;50.876;7.012;2022-10-04T13:47:36;101441.47;;;45.34;22.66
19553;BME280;9420;50.876;7.012;2022-10-04T13:50:36;101429.38;;;45.88;22.30
19553;BME280;9420;50.876;7.012;2022-10-04T13:53:21;101428.94;;;45.53;22.45
19553;BME280;9420;50.876;7.012;2022-10-04T13:56:37;101432.16;;;44.73;23.93
19553;BME280;9420;50.876;7.012;2022-10-04T13:59:17;101413.81;;;44.72;23.27
19553;BME280;9420;50.876;7.012;2022-10-04T14:02:21;101411.59;;;46.37;22.93
19553;BME280;9420;50.876;7.012;2022-10-04T14:08:50;101398.97;;;45.82;22.52
19553;BME280;9420;50.876;7.012;2022-10-04T14:12:03;101394.53;;;46.34;22.01
19553;BME280;9420;50.876;7.012;2022-10-04T14:15:20;101387.59;;;45.83;22.34
19553;BME280;9420;50.876;7.012;2022-10-04T14:18:39;101390.09;;;46.65;21.86
19553;BME280;9420;50.876;7.012;2022-10-04T14:25:15;101376.88;;;45.97;22.44
19553;BME280;9420;50.876;7.012;2022-10-04T14:31:22;101363.97;;;46.12;22.23
19553;BME280;9420;50.876;7.012;2022-10-04T14:37:29;101364.69;;;45.33;22.62
19553;BME280;9420;50.876;7.012;2022-10-04T14:43:59;101372.50;;;45.36;23.19
19553;BME280;9420;50.876;7.012;2022-10-04T14:46:46;101375.28;;;45.36;23.25
19553;BME280;9420;50.876;7.012;2022-10-04T14:49:35;101374.69;;;44.29;23.34
19553;BME280;9420;50.876;7.012;2022-10-04T14:52:33;101373.28;;;45.31;23.45
19553;BME280;9420;50.876;7.012;2022-10-04T14:55:27;101355.16;;;45.50;23.19
19553;BME280;9420;50.876;7.012;2022-10-04T14:58:14;101359.25;;;45.21;22.74
19553;BME280;9420;50.876;7.012;2022-10-04T15:01:05;101357.97;;;45.72;22.44
19553;BME280;9420;50.876;7.012;2022-10-04T15:03:49;101353.94;;;45.20;23.21
19553;BME280;9420;50.876;7.012;2022-10-04T15:06:37;101352.00;;;44.32;23.32
19553;BME280;9420;50.876;7.012;2022-10-04T15:09:53;101347.94;;;44.40;23.35
19553;BME280;9420;50.876;7.012;2022-10-04T15:12:55;101334.78;;;44.02;24.13
19553;BME280;9420;50.876;7.012;2022-10-04T15:15:55;101332.66;;;43.24;25.12
19553;BME280;9420;50.876;7.012;2022-10-04T15:18:44;101329.28;;;42.76;25.48
19553;BME280;9420;50.876;7.012;2022-10-04T15:21:37;101331.00;;;43.52;24.65
19553;BME280;9420;50.876;7.012;2022-10-04T15:24:22;101346.47;;;42.43;25.42
19553;BME280;9420;50.876;7.012;2022-10-04T15:27:26;101346.94;;;42.29;26.35
19553;BME280;9420;50.876;7.012;2022-10-04T15:30:16;101336.41;;;42.60;26.14
19553;BME280;9420;50.876;7.012;2022-10-04T15:33:03;101341.88;;;42.14;26.39
19553;BME280;9420;50.876;7.012;2022-10-04T15:35:39;101335.72;;;41.82;26.40
19553;BME280;9420;50.876;7.012;2022-10-04T15:38:23;101337.72;;;41.75;26.94
19553;BME280;9420;50.876;7.012;2022-10-04T15:41:02;101337.31;;;39.19;29.37
19553;BME280;9420;50.876;7.012;2022-10-04T15:43:40;101341.19;;;37.18;32.05
19553;BME280;9420;50.876;7.012;2022-10-04T15:46:41;101346.41;;;36.30;34.09
19553;BME280;9420;50.876;7.012;2022-10-04T15:49:37;101346.25;;;36.11;34.23
19553;BME280;9420;50.876;7.012;2022-10-04T15:52:45;101350.16;;;35.51;34.83